RYR89DV LDZD-EDLV
Flight info
| Callsign | RYR89DV |
|---|---|
| Flight time | N/A |
| Altitude | 36000 |
| Route | RAVNA DCT RASTA DCT SIMBA DCT KEMES DCT TESDU DCT AMETU T852 EKSAK/N0370F260 T852 KULIX/N0359F240 T852 HMM Z850 TURUX DCT SOBTU SOBTU1W |
| Aircraft | B738/M-SDE2E3FGHIRWXY/LB1 |
Departure
| Time | N/A |
|---|---|
| Airport | Zadar Airport (LDZD) |
Arrival
| Time | 2026-04-26 17:55 |
|---|---|
| Airport | Weeze (Niederrhein) Airport (EDLV) |
| Time | Latitude | Longitude | Altitude | Speed | Heading |
|---|---|---|---|---|---|
| 2026-04-26 17:36 | 51.45650 | 8.13618 | 28164 ft | 329 kts | 325° |
| 2026-04-26 17:36 | 51.47594 | 8.11554 | 27815 ft | 331 kts | 325° |
| 2026-04-26 17:37 | 51.49491 | 8.09540 | 27467 ft | 329 kts | 325° |
| 2026-04-26 17:37 | 51.51370 | 8.07543 | 27129 ft | 327 kts | 325° |
| 2026-04-26 17:37 | 51.53286 | 8.05508 | 26796 ft | 325 kts | 325° |
| 2026-04-26 17:38 | 51.57035 | 8.01527 | 26120 ft | 321 kts | 325° |
| 2026-04-26 17:38 | 51.58869 | 7.99576 | 25791 ft | 319 kts | 324° |
| 2026-04-26 17:38 | 51.60720 | 7.97605 | 25461 ft | 318 kts | 324° |
| 2026-04-26 17:38 | 51.62561 | 7.95643 | 25130 ft | 316 kts | 324° |
| 2026-04-26 17:39 | 51.64388 | 7.93692 | 24816 ft | 315 kts | 324° |
| 2026-04-26 17:39 | 51.66222 | 7.91733 | 24481 ft | 314 kts | 324° |
| 2026-04-26 17:39 | 51.68035 | 7.89794 | 24157 ft | 313 kts | 324° |
| 2026-04-26 17:39 | 51.69851 | 7.87851 | 23810 ft | 313 kts | 324° |
| 2026-04-26 17:40 | 51.71657 | 7.85915 | 23441 ft | 311 kts | 324° |
| 2026-04-26 17:40 | 51.72271 | 7.85257 | 23321 ft | 311 kts | 324° |
| 2026-04-26 17:40 | 51.74607 | 7.81046 | 22540 ft | 311 kts | 289° |
| 2026-04-26 17:40 | 51.75042 | 7.77643 | 22189 ft | 311 kts | 274° |
| 2026-04-26 17:41 | 51.74999 | 7.74159 | 21856 ft | 310 kts | 269° |
| 2026-04-26 17:41 | 51.74858 | 7.70697 | 21508 ft | 309 kts | 268° |
| 2026-04-26 17:41 | 51.74700 | 7.67247 | 21161 ft | 308 kts | 268° |
| 2026-04-26 17:41 | 51.74544 | 7.63803 | 20831 ft | 307 kts | 268° |
| 2026-04-26 17:42 | 51.74394 | 7.60382 | 20511 ft | 305 kts | 268° |
| 2026-04-26 17:42 | 51.74249 | 7.56975 | 20181 ft | 304 kts | 268° |
| 2026-04-26 17:42 | 51.74108 | 7.53579 | 19862 ft | 301 kts | 268° |
| 2026-04-26 17:42 | 51.73971 | 7.50225 | 19405 ft | 298 kts | 268° |
| 2026-04-26 17:43 | 51.73835 | 7.46883 | 18873 ft | 299 kts | 268° |
| 2026-04-26 17:43 | 51.73700 | 7.43547 | 18351 ft | 297 kts | 268° |
| 2026-04-26 17:43 | 51.73556 | 7.40228 | 17829 ft | 295 kts | 265° |
| 2026-04-26 17:43 | 51.73220 | 7.36970 | 17304 ft | 294 kts | 260° |
| 2026-04-26 17:44 | 51.72777 | 7.33754 | 16784 ft | 293 kts | 259° |
| 2026-04-26 17:44 | 51.72316 | 7.30561 | 16277 ft | 291 kts | 259° |
| 2026-04-26 17:44 | 51.71860 | 7.27388 | 15775 ft | 290 kts | 260° |
| 2026-04-26 17:44 | 51.71412 | 7.24220 | 15282 ft | 289 kts | 260° |
| 2026-04-26 17:45 | 51.70972 | 7.21070 | 14800 ft | 288 kts | 260° |
| 2026-04-26 17:45 | 51.70537 | 7.17925 | 14321 ft | 286 kts | 260° |
| 2026-04-26 17:45 | 51.70108 | 7.14798 | 13820 ft | 285 kts | 261° |
| 2026-04-26 17:45 | 51.69686 | 7.11720 | 13285 ft | 284 kts | 261° |
| 2026-04-26 17:46 | 51.69262 | 7.08623 | 12780 ft | 283 kts | 261° |
| 2026-04-26 17:46 | 51.68840 | 7.05536 | 12271 ft | 282 kts | 261° |
| 2026-04-26 17:46 | 51.68418 | 7.02454 | 11798 ft | 279 kts | 261° |
| 2026-04-26 17:46 | 51.68003 | 6.99429 | 11401 ft | 275 kts | 261° |
| 2026-04-26 17:47 | 51.67593 | 6.96443 | 10995 ft | 271 kts | 261° |
| 2026-04-26 17:47 | 51.67456 | 6.95447 | 10866 ft | 269 kts | 261° |
| 2026-04-26 17:47 | 51.66790 | 6.90606 | 10228 ft | 264 kts | 261° |
| 2026-04-26 17:47 | 51.66393 | 6.87728 | 9806 ft | 262 kts | 261° |
| 2026-04-26 17:48 | 51.66000 | 6.84880 | 9383 ft | 260 kts | 261° |
| 2026-04-26 17:48 | 51.65608 | 6.82039 | 8974 ft | 261 kts | 261° |
| 2026-04-26 17:48 | 51.65212 | 6.79178 | 8571 ft | 263 kts | 260° |
| 2026-04-26 17:48 | 51.64812 | 6.76300 | 8159 ft | 264 kts | 260° |
| 2026-04-26 17:49 | 51.64412 | 6.73424 | 7763 ft | 262 kts | 260° |
| 2026-04-26 17:49 | 51.64015 | 6.70577 | 7368 ft | 260 kts | 260° |
| 2026-04-26 17:49 | 51.63617 | 6.67734 | 6976 ft | 259 kts | 260° |
| 2026-04-26 17:49 | 51.63221 | 6.64904 | 6530 ft | 260 kts | 259° |
| 2026-04-26 17:50 | 51.62823 | 6.62066 | 6067 ft | 260 kts | 259° |
| 2026-04-26 17:50 | 51.62430 | 6.59269 | 5615 ft | 259 kts | 259° |
| 2026-04-26 17:50 | 51.62033 | 6.56444 | 5161 ft | 258 kts | 259° |
| 2026-04-26 17:50 | 51.61638 | 6.53639 | 4715 ft | 257 kts | 258° |
| 2026-04-26 17:51 | 51.61372 | 6.51755 | 4473 ft | 253 kts | 259° |
| 2026-04-26 17:51 | 51.60994 | 6.49082 | 4259 ft | 244 kts | 258° |
| 2026-04-26 17:51 | 51.60622 | 6.46465 | 4035 ft | 236 kts | 258° |
| 2026-04-26 17:51 | 51.60260 | 6.43920 | 3731 ft | 232 kts | 258° |
| 2026-04-26 17:52 | 51.59902 | 6.41402 | 3376 ft | 230 kts | 258° |
| 2026-04-26 17:52 | 51.59654 | 6.38899 | 2986 ft | 225 kts | 272° |
| 2026-04-26 17:52 | 51.59747 | 6.36399 | 2666 ft | 223 kts | 276° |
| 2026-04-26 17:52 | 51.59831 | 6.33936 | 2349 ft | 217 kts | 274° |
| 2026-04-26 17:53 | 51.59879 | 6.31580 | 2070 ft | 206 kts | 274° |
| 2026-04-26 17:53 | 51.59923 | 6.29340 | 1796 ft | 196 kts | 274° |
| 2026-04-26 17:53 | 51.59967 | 6.27200 | 1511 ft | 187 kts | 274° |
| 2026-04-26 17:54 | 51.60049 | 6.23319 | 1039 ft | 159 kts | 274° |
| 2026-04-26 17:54 | 51.60086 | 6.21602 | 862 ft | 152 kts | 273° |
| 2026-04-26 17:54 | 51.60119 | 6.19859 | 638 ft | 159 kts | 274° |
| 2026-04-26 17:54 | 51.60156 | 6.18100 | 409 ft | 153 kts | 274° |
| 2026-04-26 17:55 | 51.60195 | 6.16390 | 214 ft | 153 kts | 274° |
| 2026-04-26 17:55 | 51.60250 | 6.14725 | 109 ft | 135 kts | 275° |
| 2026-04-26 17:55 | 51.60281 | 6.13666 | 113 ft | 69 kts | 265° |
| 2026-04-26 17:55 | 51.60269 | 6.13147 | 111 ft | 0 kts | 273° |
| 2026-04-26 17:56 | 51.60271 | 6.13106 | 110 ft | 6 kts | 272° |
| 2026-04-26 17:56 | 51.60200 | 6.12955 | 108 ft | 15 kts | 181° |
| 2026-04-26 17:57 | 51.60079 | 6.13114 | 108 ft | 14 kts | 90° |
| 2026-04-26 17:57 | 51.60076 | 6.13274 | 110 ft | 14 kts | 92° |
| 2026-04-26 17:57 | 51.60072 | 6.13428 | 111 ft | 14 kts | 92° |
| 2026-04-26 17:57 | 51.60068 | 6.13578 | 111 ft | 13 kts | 92° |
| 2026-04-26 17:58 | 51.60058 | 6.14060 | 112 ft | 18 kts | 91° |
| 2026-04-26 17:59 | 51.60047 | 6.14537 | 108 ft | 24 kts | 91° |
| 2026-04-26 17:59 | 51.60044 | 6.14769 | 110 ft | 10 kts | 103° |
| 2026-04-26 17:59 | 51.59983 | 6.14799 | 111 ft | 10 kts | 180° |
| 2026-04-26 17:59 | 51.59958 | 6.14831 | 112 ft | 4 kts | 99° |
| 2026-04-26 18:00 | 51.59957 | 6.14865 | 112 ft | 0 kts | 92° |